Aérodrome :
LOGIN :

S'inscrire | Disclaimer

   EN    FR    IT 

 










Légende :    VFR   VFR Marginal   IFR   IFR Intensif   IFR Très Intensif
Visi : 
Plafond : 
>= 8 km
>= 3000ft
5 à 8 km
1000 à 3000 ft
1500m à 5 km
500 à 1000 ft
800 à 1500m
200 à 500 ft
< 800m
< 200 ft
Symboles :   Orages  Brouillard  Fortes neiges  Fortes précipitations  Vent > 20 kt
SIGMETs :   Divers  Orages  Givrage  Turbulence  Onde Orograph.  Cendres Volcan.







- Altitude de l'aérodrome : 1470 ft
- Code IATA : KLU


LOWK - Klagenfurt

DERNIER METAR :
  • 301220Z 06006KT 010V100 9999 FEW050 SCT060 14/00 Q1016 NOSIG

METARs EXPIRÉS :
  • 301150Z VRB04KT 9999 FEW050 SCT060 14/01 Q1016 NOSIG
  • 301120Z VRB04KT 9999 FEW050 SCT060 13/00 Q1016 NOSIG
  • 301050Z 11005KT 060V150 9999 FEW050 SCT060 13/M01 Q1017 NOSIG
  • 301020Z VRB01KT 9999 FEW050 SCT060 13/02 Q1017 NOSIG
  • 300950Z VRB04KT 9999 FEW050 11/00 Q1018 NOSIG

TAF TAF LOWK
Valide du 30 à 12h jusqu'au 01 à 12h UTC


301115Z 3012/0112 VRB02KT 9999 FEW050 SCT070 TX16/0112Z TN04/0103Z
TEMPO 3012/3017 09007KT
BECMG 0109/0112 21006KT
Pas de NOTAMs connus pour ce terrain.



MET'MAP, la Météo Aéronautique d'un coup d'oeil ! - Copyright ORBIFLY Décembre 2007 - Disclaimer

ORBIFLY MET'MAP TEAM :

Programmation & Développement : Alexandra Zaïnal
Conception & Développement : Baudouin d'Aumeries
Co-Programmation & Développement : Marc-Olivier Méhu
Soutien technique & logistique : Manuel Goepfert

Contact : metmap@orbifly.com




SOURCES & CREDITS :

   NOAA